Time;durP1;ratioP1;P1;durP2;ratioP2;P2;SDS_P1;SDS_P2;PMS_P1;PMS_P2;Temp;Humidity;BMP_temperature;BMP_pressure;BME280_temperature;BME280_humidity;BME280_pressure;Samples;Min_cycle;Max_cycle;Signal;HPM_P1;HPM_P2
2020/12/20 00:00:15;;;;;;;1.30;1.10;;;18.40;57.60;;;;;;4955686;28;20232;-58
2020/12/20 00:02:56;;;;;;;2.57;1.40;;;18.40;57.60;;;;;;4958151;28;20239;-57
2020/12/20 00:05:26;;;;;;;2.00;1.40;;;18.40;57.60;;;;;;4971484;28;21274;-56
2020/12/20 00:07:53;;;;;;;3.10;1.43;;;18.40;57.70;;;;;;4979808;28;20231;-58
2020/12/20 00:10:21;;;;;;;1.93;1.40;;;18.40;57.80;;;;;;4973488;28;20231;-58
2020/12/20 00:12:47;;;;;;;1.70;1.13;;;18.40;57.80;;;;;;4977226;28;20262;-58
2020/12/20 00:15:15;;;;;;;2.00;1.40;;;18.40;57.80;;;;;;4975355;28;21030;-58
2020/12/20 00:17:49;;;;;;;2.00;1.30;;;18.40;57.80;;;;;;4983154;28;20238;-59
2020/12/20 00:20:16;;;;;;;2.87;1.30;;;18.40;57.80;;;;;;4989117;28;20227;-57
2020/12/20 00:22:44;;;;;;;1.43;1.33;;;18.40;57.80;;;;;;5007535;28;20243;-57
2020/12/20 00:25:11;;;;;;;1.30;1.20;;;18.40;57.80;;;;;;5006397;28;20224;-57
2020/12/20 00:27:39;;;;;;;2.03;1.10;;;18.40;57.80;;;;;;5006781;28;20216;-57
2020/12/20 00:30:08;;;;;;;1.93;1.50;;;18.40;57.90;;;;;;5008266;28;20220;-57
2020/12/20 00:32:34;;;;;;;1.87;1.20;;;18.40;57.80;;;;;;5001275;28;20691;-57
2020/12/20 00:35:02;;;;;;;2.27;1.30;;;18.40;57.90;;;;;;5007856;28;20883;-57
2020/12/20 00:37:28;;;;;;;1.47;1.20;;;18.40;57.90;;;;;;5001084;28;20235;-57
2020/12/20 00:39:56;;;;;;;2.20;1.63;;;18.30;58.00;;;;;;5008051;28;20225;-58
2020/12/20 00:42:23;;;;;;;2.07;1.40;;;18.30;57.90;;;;;;5001775;28;20231;-57
2020/12/20 00:44:49;;;;;;;1.60;1.50;;;18.30;58.00;;;;;;5007681;28;20223;-57
2020/12/20 00:47:15;;;;;;;1.70;1.20;;;18.30;58.10;;;;;;5002146;28;20596;-59
2020/12/20 00:49:42;;;;;;;4.00;1.50;;;18.30;58.10;;;;;;5007681;28;20216;-58
2020/12/20 00:52:08;;;;;;;1.30;1.10;;;18.30;58.10;;;;;;5001271;28;20232;-58
2020/12/20 00:54:36;;;;;;;1.57;1.30;;;18.30;58.00;;;;;;5007350;28;20340;-60
2020/12/20 00:57:03;;;;;;;1.60;1.10;;;18.30;58.00;;;;;;5002651;28;20635;-58
2020/12/20 00:59:29;;;;;;;1.53;1.37;;;18.30;57.90;;;;;;5007949;28;20226;-58
2020/12/20 01:01:57;;;;;;;2.17;1.60;;;18.30;57.90;;;;;;4999798;28;20223;-58
2020/12/20 01:04:23;;;;;;;2.53;1.50;;;18.30;58.00;;;;;;5008511;28;20227;-58
2020/12/20 01:06:57;;;;;;;1.50;1.20;;;18.30;58.20;;;;;;5009004;28;20239;-58
2020/12/20 01:09:24;;;;;;;4.30;1.30;;;18.30;58.30;;;;;;5005735;28;20711;-58
2020/12/20 01:11:51;;;;;;;1.87;1.40;;;18.30;58.10;;;;;;5006627;28;20227;-57
2020/12/20 01:14:17;;;;;;;1.37;1.03;;;18.30;58.20;;;;;;5000016;28;20730;-57
2020/12/20 01:16:44;;;;;;;2.70;1.40;;;18.30;58.30;;;;;;5009104;28;20235;-57
2020/12/20 01:19:10;;;;;;;2.33;1.30;;;18.20;58.10;;;;;;5000103;28;20247;-58
2020/12/20 01:21:36;;;;;;;1.73;1.40;;;18.30;58.30;;;;;;5006158;28;20220;-58
2020/12/20 01:24:03;;;;;;;2.60;1.30;;;18.30;58.20;;;;;;5000668;28;20231;-59
2020/12/20 01:26:29;;;;;;;2.40;1.43;;;18.30;58.30;;;;;;5019115;28;20238;-59
2020/12/20 01:28:58;;;;;;;1.73;1.33;;;18.20;58.20;;;;;;5001410;28;20619;-58
2020/12/20 01:31:25;;;;;;;2.17;1.27;;;18.20;58.30;;;;;;5007446;28;20231;-56
2020/12/20 01:33:51;;;;;;;2.03;1.50;;;18.20;58.20;;;;;;4999315;28;20230;-57
2020/12/20 01:36:18;;;;;;;1.97;1.27;;;18.20;58.20;;;;;;5006085;28;20242;-57
2020/12/20 01:38:45;;;;;;;2.20;1.20;;;18.20;58.10;;;;;;4996895;28;20711;-57
2020/12/20 01:41:11;;;;;;;2.40;1.57;;;18.20;58.20;;;;;;5007090;28;20215;-57
2020/12/20 01:43:46;;;;;;;2.73;1.60;;;18.20;58.30;;;;;;5000346;28;20219;-59
2020/12/20 01:46:14;;;;;;;2.00;1.40;;;18.20;58.30;;;;;;5005858;28;20925;-58
2020/12/20 01:48:41;;;;;;;1.73;1.33;;;18.20;58.40;;;;;;5003653;28;20586;-57
2020/12/20 01:51:08;;;;;;;2.83;1.30;;;18.30;58.20;;;;;;5005959;28;20227;-57
2020/12/20 01:53:35;;;;;;;2.30;1.27;;;18.20;58.40;;;;;;5007296;28;20231;-58
2020/12/20 01:56:03;;;;;;;2.43;1.57;;;18.20;58.40;;;;;;4999144;28;20255;-58
2020/12/20 01:58:29;;;;;;;1.97;1.17;;;18.20;58.50;;;;;;5007692;28;20243;-58
2020/12/20 02:00:56;;;;;;;1.37;1.20;;;18.20;58.50;;;;;;4999181;28;20677;-57
2020/12/20 02:03:23;;;;;;;2.17;1.47;;;18.20;58.30;;;;;;5007901;28;20224;-58
2020/12/20 02:05:51;;;;;;;1.47;1.00;;;18.20;58.70;;;;;;4998619;28;20841;-58
2020/12/20 02:08:18;;;;;;;2.00;1.10;;;18.20;58.50;;;;;;5008074;28;20242;-58
2020/12/20 02:11:11;;;;;;;1.73;1.27;;;18.10;58.40;;;;;;4996001;28;20274;-59
2020/12/20 02:13:43;;;;;;;2.80;1.50;;;18.20;58.70;;;;;;5007192;28;21218;-58
2020/12/20 02:16:12;;;;;;;2.20;1.30;;;18.10;58.60;;;;;;4999153;28;20231;-59
2020/12/20 02:18:39;;;;;;;2.03;1.30;;;18.10;58.60;;;;;;5007017;28;20235;-57
2020/12/20 02:21:16;;;;;;;1.57;1.23;;;18.10;58.30;;;;;;4999539;28;20223;-57
2020/12/20 02:23:44;;;;;;;2.67;1.30;;;18.10;58.40;;;;;;5006362;28;20530;-57
2020/12/20 02:26:11;;;;;;;1.53;1.20;;;18.10;58.30;;;;;;4998562;28;20583;-58
2020/12/20 02:28:38;;;;;;;1.80;1.30;;;18.10;58.40;;;;;;5007182;28;20223;-58
2020/12/20 02:31:05;;;;;;;2.80;1.47;;;18.20;58.50;;;;;;4998108;28;20237;-58
2020/12/20 02:33:32;;;;;;;1.60;1.20;;;18.10;58.60;;;;;;5006845;28;21090;-59
2020/12/20 02:35:59;;;;;;;3.40;1.40;;;18.10;58.60;;;;;;4997713;28;20244;-58
2020/12/20 02:38:28;;;;;;;1.53;1.40;;;18.10;58.40;;;;;;5007236;28;20223;-59
2020/12/20 02:40:56;;;;;;;2.37;1.20;;;18.10;58.50;;;;;;5000079;28;20219;-58
2020/12/20 02:43:23;;;;;;;1.73;1.37;;;18.10;58.60;;;;;;4992905;28;20235;-58
2020/12/20 02:45:49;;;;;;;1.30;1.03;;;18.10;58.50;;;;;;4986753;28;20667;-58
2020/12/20 02:48:15;;;;;;;1.60;1.30;;;18.10;58.40;;;;;;4978614;28;20228;-58
2020/12/20 02:50:42;;;;;;;2.27;1.23;;;18.10;58.70;;;;;;4986891;28;20800;-58
2020/12/20 02:53:08;;;;;;;3.17;1.20;;;18.10;58.50;;;;;;4994831;28;21725;-59
2020/12/20 02:55:34;;;;;;;4.10;1.20;;;18.10;58.50;;;;;;4985928;28;20231;-59
2020/12/20 02:58:00;;;;;;;2.67;1.10;;;18.10;58.70;;;;;;4979558;28;20224;-59
2020/12/20 03:00:27;;;;;;;2.70;1.20;;;18.10;58.60;;;;;;4994003;28;20243;-58
2020/12/20 03:02:53;;;;;;;2.67;1.37;;;18.10;58.70;;;;;;4987293;28;20239;-58
2020/12/20 03:05:19;;;;;;;1.63;1.20;;;18.10;58.60;;;;;;4986241;28;20220;-57
2020/12/20 03:07:46;;;;;;;3.00;1.40;;;18.10;58.60;;;;;;4979141;28;20224;-57
2020/12/20 03:10:13;;;;;;;2.20;1.40;;;18.10;58.60;;;;;;4997805;28;20505;-60
2020/12/20 03:12:40;;;;;;;1.50;1.07;;;18.10;58.60;;;;;;4995149;28;20219;-58
2020/12/20 03:15:07;;;;;;;2.17;1.20;;;18.10;58.60;;;;;;4986366;28;20220;-58
2020/12/20 03:17:33;;;;;;;1.80;1.20;;;18.10;58.80;;;;;;4985579;28;20610;-58
2020/12/20 03:19:59;;;;;;;1.73;1.30;;;18.10;58.60;;;;;;5006303;28;20876;-58
2020/12/20 03:22:25;;;;;;;1.77;1.20;;;18.10;58.70;;;;;;5005580;28;20230;-57
2020/12/20 03:24:52;;;;;;;2.97;1.23;;;18.00;58.60;;;;;;4993597;28;20235;-58
2020/12/20 03:27:20;;;;;;;1.90;1.10;;;18.00;58.70;;;;;;4992257;28;21315;-58
2020/12/20 03:29:46;;;;;;;1.47;1.23;;;18.10;58.60;;;;;;4976264;28;20251;-58
2020/12/20 03:32:12;;;;;;;1.33;1.23;;;18.10;58.60;;;;;;4986083;28;20221;-58
2020/12/20 03:34:39;;;;;;;2.17;0.97;;;18.10;58.70;;;;;;4979196;28;20235;-58
2020/12/20 03:37:06;;;;;;;4.07;1.47;;;18.10;59.20;;;;;;4986945;28;20236;-58
2020/12/20 03:39:32;;;;;;;1.50;1.40;;;18.00;58.60;;;;;;4975482;28;20224;-57
2020/12/20 03:41:59;;;;;;;2.00;0.90;;;18.00;59.30;;;;;;4985902;28;20224;-58
2020/12/20 03:44:25;;;;;;;2.30;1.30;;;18.00;58.70;;;;;;4979308;28;20766;-58
2020/12/20 03:46:51;;;;;;;1.93;1.30;;;18.00;58.90;;;;;;4985494;28;21489;-58
2020/12/20 03:49:18;;;;;;;1.23;1.03;;;18.00;58.70;;;;;;4978994;28;20688;-58
2020/12/20 03:51:44;;;;;;;1.27;1.10;;;18.00;58.90;;;;;;5006658;28;20562;-58
2020/12/20 03:54:10;;;;;;;2.33;1.30;;;18.10;58.90;;;;;;4997282;28;21240;-58
2020/12/20 03:56:36;;;;;;;1.63;0.90;;;18.00;58.90;;;;;;4998377;28;20228;-58
2020/12/20 03:59:03;;;;;;;2.90;1.30;;;18.00;58.80;;;;;;4992790;28;20224;-58
2020/12/20 04:01:29;;;;;;;1.57;1.00;;;18.00;59.10;;;;;;5012466;28;20226;-59
2020/12/20 04:03:55;;;;;;;2.20;1.13;;;18.00;59.00;;;;;;5012203;28;22110;-58
2020/12/20 04:06:22;;;;;;;1.63;1.07;;;18.00;58.90;;;;;;5006955;28;20231;-58
2020/12/20 04:08:48;;;;;;;2.07;1.10;;;17.90;58.80;;;;;;5012670;28;21000;-58
2020/12/20 04:11:17;;;;;;;2.50;1.10;;;18.00;59.00;;;;;;5003869;28;20566;-57
2020/12/20 04:13:43;;;;;;;1.63;1.27;;;18.00;58.90;;;;;;5030135;28;20550;-58
2020/12/20 04:16:11;;;;;;;2.83;1.20;;;18.00;59.00;;;;;;5022533;28;20740;-58
2020/12/20 04:18:37;;;;;;;1.27;1.07;;;18.00;58.90;;;;;;5023248;28;20214;-58
2020/12/20 04:21:04;;;;;;;2.63;1.37;;;18.00;58.80;;;;;;5023106;28;20241;-58
2020/12/20 04:23:30;;;;;;;2.53;1.10;;;18.00;59.00;;;;;;5020091;28;20215;-58
2020/12/20 04:25:57;;;;;;;1.43;1.17;;;18.00;58.80;;;;;;5001501;28;20573;-58
2020/12/20 04:28:24;;;;;;;1.30;0.90;;;18.00;58.90;;;;;;5022566;28;20237;-59
2020/12/20 04:30:53;;;;;;;1.83;1.17;;;18.00;59.20;;;;;;5022748;28;20314;-59
2020/12/20 04:33:19;;;;;;;2.77;1.30;;;18.00;59.20;;;;;;5030087;28;20226;-58
2020/12/20 04:35:46;;;;;;;2.00;1.13;;;18.00;59.00;;;;;;5017522;28;20227;-58
2020/12/20 04:38:12;;;;;;;2.07;1.10;;;18.00;59.00;;;;;;5016159;28;20234;-58
2020/12/20 04:40:38;;;;;;;1.30;0.90;;;18.00;59.20;;;;;;4990655;28;20219;-58
2020/12/20 04:43:11;;;;;;;1.33;0.93;;;18.00;59.10;;;;;;5017935;28;20230;-59
2020/12/20 04:45:39;;;;;;;2.27;1.13;;;18.00;59.10;;;;;;5031672;28;20222;-58
2020/12/20 04:48:05;;;;;;;1.67;1.10;;;18.00;59.10;;;;;;5014305;28;20223;-58
2020/12/20 04:50:32;;;;;;;2.10;1.27;;;18.00;59.00;;;;;;5009634;28;20223;-57
2020/12/20 04:53:00;;;;;;;2.00;1.10;;;18.00;58.90;;;;;;5018030;28;20255;-57
2020/12/20 04:55:27;;;;;;;1.90;1.30;;;18.00;59.10;;;;;;5008603;28;20219;-59
2020/12/20 04:57:56;;;;;;;3.93;1.00;;;18.00;59.00;;;;;;4997824;28;20227;-58
2020/12/20 05:00:22;;;;;;;1.13;1.00;;;18.00;59.20;;;;;;5010257;28;20738;-59
2020/12/20 05:02:49;;;;;;;1.57;1.10;;;18.00;58.90;;;;;;4999026;28;20691;-59
2020/12/20 05:05:15;;;;;;;2.03;1.10;;;18.00;59.00;;;;;;5007294;28;20228;-59
2020/12/20 05:07:43;;;;;;;1.13;0.80;;;18.00;59.20;;;;;;5000761;28;20220;-58
2020/12/20 05:10:09;;;;;;;2.10;1.00;;;18.00;59.10;;;;;;5008723;28;20224;-59
2020/12/20 05:12:36;;;;;;;1.63;1.00;;;17.90;59.10;;;;;;4999646;28;20692;-57
2020/12/20 05:15:17;;;;;;;2.23;1.20;;;18.00;59.10;;;;;;5007838;28;20733;-59
2020/12/20 05:17:43;;;;;;;3.87;1.30;;;18.00;59.10;;;;;;5001856;28;20219;-57
2020/12/20 05:20:32;;;;;;;4.03;1.30;;;18.00;59.30;;;;;;5006234;28;20715;-58
2020/12/20 05:22:59;;;;;;;2.47;1.07;;;17.90;59.10;;;;;;4999777;28;21660;-58
2020/12/20 05:25:25;;;;;;;3.13;1.07;;;18.00;59.30;;;;;;5006674;28;20254;-58
2020/12/20 05:28:02;;;;;;;1.97;1.10;;;18.00;59.50;;;;;;5001423;28;20627;-58
2020/12/20 05:30:29;;;;;;;2.33;1.20;;;17.90;59.10;;;;;;5006883;28;20218;-58
2020/12/20 05:32:55;;;;;;;2.13;1.20;;;18.00;59.10;;;;;;5008682;28;20227;-58
2020/12/20 05:35:21;;;;;;;2.00;1.37;;;18.00;59.10;;;;;;4998844;28;20228;-58
2020/12/20 05:37:48;;;;;;;2.17;1.17;;;18.00;59.60;;;;;;5007502;28;20704;-58
2020/12/20 05:40:26;;;;;;;1.90;1.00;;;17.90;59.30;;;;;;4996809;28;20278;-58
2020/12/20 05:43:14;;;;;;;1.60;1.00;;;18.00;59.20;;;;;;5004014;28;20231;-59
2020/12/20 05:45:43;;;;;;;1.47;1.30;;;18.00;58.90;;;;;;4999090;28;20230;-58
2020/12/20 05:48:17;;;;;;;2.30;1.17;;;18.00;58.90;;;;;;5006949;28;20215;-58
2020/12/20 05:50:54;;;;;;;1.43;1.10;;;18.00;58.90;;;;;;5000148;28;20556;-58
2020/12/20 05:53:27;;;;;;;2.97;1.20;;;17.90;59.10;;;;;;5013440;28;20238;-58
2020/12/20 05:55:55;;;;;;;1.43;0.80;;;18.00;59.30;;;;;;5016860;28;20227;-58
2020/12/20 05:58:22;;;;;;;1.97;0.97;;;18.00;59.10;;;;;;5018488;28;20222;-58
2020/12/20 06:00:49;;;;;;;1.27;0.83;;;18.00;60.00;;;;;;5017372;28;20751;-59
2020/12/20 06:03:16;;;;;;;1.70;1.10;;;17.90;58.90;;;;;;5024154;28;20234;-56
2020/12/20 06:05:45;;;;;;;1.63;1.03;;;18.00;58.90;;;;;;5018609;28;20218;-59
2020/12/20 06:08:16;;;;;;;1.73;1.20;;;18.00;58.90;;;;;;5029311;28;20565;-58
2020/12/20 06:10:50;;;;;;;2.23;1.27;;;18.00;58.80;;;;;;5018685;28;20792;-57
2020/12/20 06:13:19;;;;;;;1.33;0.90;;;18.00;58.80;;;;;;5023945;28;20222;-56
2020/12/20 06:15:56;;;;;;;1.50;0.90;;;17.90;58.50;;;;;;5019252;28;20219;-58
2020/12/20 06:18:29;;;;;;;2.70;1.30;;;18.00;58.80;;;;;;5025731;28;20245;-57
2020/12/20 06:21:00;;;;;;;2.10;1.17;;;18.00;58.60;;;;;;5017223;28;20230;-58
2020/12/20 06:23:31;;;;;;;2.93;1.40;;;18.00;58.60;;;;;;5026283;28;20434;-58
2020/12/20 06:26:01;;;;;;;1.20;1.00;;;17.90;58.60;;;;;;5017656;28;20769;-57
2020/12/20 06:28:32;;;;;;;1.87;1.13;;;18.00;58.60;;;;;;5027905;28;20231;-58
2020/12/20 06:31:00;;;;;;;1.70;1.20;;;17.90;58.50;;;;;;5018203;28;20217;-59
2020/12/20 06:33:34;;;;;;;2.13;1.00;;;17.90;58.50;;;;;;5026386;28;20227;-56
2020/12/20 06:36:09;;;;;;;1.37;0.97;;;17.90;58.50;;;;;;5017863;28;21626;-57
2020/12/20 06:38:35;;;;;;;2.03;1.10;;;17.90;58.50;;;;;;5027182;28;20241;-57
2020/12/20 06:41:03;;;;;;;2.20;1.00;;;17.90;58.30;;;;;;5018226;28;20223;-58
2020/12/20 06:43:32;;;;;;;1.77;0.90;;;17.90;58.20;;;;;;5025188;28;20270;-57
2020/12/20 06:45:59;;;;;;;1.80;1.27;;;17.90;58.20;;;;;;5025628;28;20214;-57
2020/12/20 06:48:38;;;;;;;2.37;1.37;;;18.00;58.50;;;;;;5018923;28;20235;-57
2020/12/20 06:51:06;;;;;;;1.47;1.10;;;17.90;58.10;;;;;;5025779;28;20239;-57
2020/12/20 06:53:52;;;;;;;3.57;1.23;;;17.90;58.10;;;;;;5018039;28;20253;-57
2020/12/20 06:56:24;;;;;;;1.63;1.20;;;18.00;58.30;;;;;;5025403;28;20218;-57
2020/12/20 06:58:52;;;;;;;3.77;1.27;;;17.90;58.30;;;;;;5017446;28;20764;-57
2020/12/20 07:01:38;;;;;;;5.27;1.60;;;17.90;58.20;;;;;;5024580;28;20215;-57
2020/12/20 07:04:06;;;;;;;1.63;0.90;;;18.00;58.20;;;;;;5021083;28;20616;-57
2020/12/20 07:06:33;;;;;;;2.73;1.30;;;17.90;58.00;;;;;;5024673;28;20227;-56
2020/12/20 07:09:06;;;;;;;1.37;1.00;;;17.90;58.10;;;;;;5018105;28;20229;-58
2020/12/20 07:11:41;;;;;;;1.73;1.10;;;18.00;58.20;;;;;;5025113;28;20229;-58
2020/12/20 07:14:23;;;;;;;1.83;1.10;;;17.90;58.00;;;;;;5018681;28;20233;-58
2020/12/20 07:16:51;;;;;;;2.10;1.10;;;17.90;58.10;;;;;;5024948;28;20577;-58
2020/12/20 07:19:25;;;;;;;1.47;0.83;;;17.90;58.10;;;;;;5016470;28;20584;-58
2020/12/20 07:21:59;;;;;;;2.70;1.20;;;17.90;58.10;;;;;;5025500;28;20230;-58
2020/12/20 07:24:31;;;;;;;1.33;1.00;;;17.90;57.90;;;;;;5017223;28;20241;-62
2020/12/20 07:27:03;;;;;;;1.60;0.90;;;17.90;58.10;;;;;;5022423;28;20282;-58
2020/12/20 07:29:34;;;;;;;2.43;1.13;;;17.90;58.00;;;;;;5018858;28;20422;-58
2020/12/20 07:32:04;;;;;;;1.83;1.03;;;17.90;58.10;;;;;;5031934;28;21738;-58
2020/12/20 07:34:31;;;;;;;1.43;0.93;;;17.90;58.10;;;;;;5016492;28;20215;-59
2020/12/20 07:36:58;;;;;;;2.10;1.03;;;18.00;58.00;;;;;;5027394;28;20221;-61
2020/12/20 07:39:25;;;;;;;1.83;1.10;;;18.00;58.00;;;;;;5017318;28;20233;-62
2020/12/20 07:41:57;;;;;;;2.90;1.30;;;17.90;58.10;;;;;;5025687;28;20301;-57
2020/12/20 07:44:23;;;;;;;2.17;1.20;;;17.90;58.10;;;;;;5017848;28;20279;-59
2020/12/20 07:46:50;;;;;;;2.30;1.27;;;17.90;58.00;;;;;;5031808;28;20237;-57
2020/12/20 07:49:16;;;;;;;2.27;1.10;;;17.90;58.10;;;;;;5016856;28;20235;-58
2020/12/20 07:51:43;;;;;;;1.83;1.13;;;17.90;58.00;;;;;;5025777;28;20227;-58
2020/12/20 07:54:11;;;;;;;1.77;1.00;;;17.90;58.10;;;;;;5017216;28;20242;-58
2020/12/20 07:56:46;;;;;;;2.77;1.33;;;17.90;57.90;;;;;;5025192;28;20222;-56
2020/12/20 07:59:14;;;;;;;3.43;1.47;;;17.90;58.00;;;;;;5016872;28;20687;-56
2020/12/20 08:01:45;;;;;;;5.70;1.30;;;17.90;58.00;;;;;;5024745;28;20640;-56
2020/12/20 08:04:19;;;;;;;3.80;1.20;;;17.90;58.00;;;;;;5025264;28;20575;-57
2020/12/20 08:06:48;;;;;;;1.40;1.00;;;17.90;58.10;;;;;;5022008;28;20654;-59
2020/12/20 08:09:24;;;;;;;3.03;1.33;;;17.90;58.30;;;;;;5023563;28;20238;-59
2020/12/20 08:11:52;;;;;;;2.60;0.97;;;17.90;58.40;;;;;;5016502;28;21916;-58
2020/12/20 08:14:22;;;;;;;2.10;1.20;;;17.90;58.30;;;;;;5025251;28;20246;-58
2020/12/20 08:16:50;;;;;;;1.80;1.00;;;17.90;58.00;;;;;;5016910;28;20241;-60
2020/12/20 08:19:29;;;;;;;1.43;1.10;;;17.90;58.10;;;;;;5026477;28;20239;-59
2020/12/20 08:22:27;;;;;;;4.07;1.20;;;17.90;58.20;;;;;;5018144;28;20241;-58
2020/12/20 08:24:55;;;;;;;3.93;1.07;;;17.90;58.20;;;;;;5003467;28;20235;-58
2020/12/20 08:27:27;;;;;;;3.43;1.57;;;17.90;58.10;;;;;;5017816;28;20222;-57
2020/12/20 08:29:56;;;;;;;2.33;1.00;;;17.90;58.30;;;;;;5024186;28;20694;-59
2020/12/20 08:32:38;;;;;;;1.30;0.97;;;17.90;57.90;;;;;;5016024;28;20245;-57
2020/12/20 08:35:21;;;;;;;1.93;1.10;;;17.90;58.00;;;;;;5025912;28;20614;-57
2020/12/20 08:37:53;;;;;;;3.17;1.27;;;17.90;58.10;;;;;;5018738;28;20285;-58
2020/12/20 08:40:20;;;;;;;3.33;1.20;;;17.90;58.00;;;;;;5029692;28;20237;-58
2020/12/20 08:42:48;;;;;;;2.50;1.17;;;17.90;58.00;;;;;;5021400;28;20234;-58
2020/12/20 08:45:18;;;;;;;2.00;0.97;;;17.90;57.90;;;;;;5029313;28;20223;-57
2020/12/20 08:47:45;;;;;;;1.93;1.13;;;17.90;57.90;;;;;;5020977;28;20715;-59
2020/12/20 08:50:13;;;;;;;3.43;1.43;;;17.90;57.90;;;;;;5028659;28;20233;-61
2020/12/20 08:52:40;;;;;;;3.20;1.30;;;17.90;57.70;;;;;;5021624;28;20241;-57
2020/12/20 08:55:07;;;;;;;2.70;1.27;;;17.90;57.90;;;;;;5031076;28;20242;-56
2020/12/20 08:57:35;;;;;;;2.83;1.33;;;17.90;57.80;;;;;;5018605;28;20744;-58
2020/12/20 09:00:15;;;;;;;3.67;1.60;;;17.90;57.80;;;;;;5027735;28;20662;-58
2020/12/20 09:02:42;;;;;;;2.97;1.20;;;17.90;57.80;;;;;;5015351;28;20243;-57
2020/12/20 09:05:13;;;;;;;2.83;1.47;;;17.90;57.70;;;;;;5033272;28;20226;-58
2020/12/20 09:07:44;;;;;;;3.87;1.57;;;17.90;57.70;;;;;;5018687;28;20335;-58
2020/12/20 09:10:15;;;;;;;4.57;1.50;;;17.90;57.60;;;;;;5028380;28;20238;-59
2020/12/20 09:12:56;;;;;;;3.07;1.43;;;17.90;57.50;;;;;;5022645;28;20226;-60
2020/12/20 09:15:33;;;;;;;3.97;1.47;;;17.90;57.50;;;;;;5022436;28;20699;-59
2020/12/20 09:18:15;;;;;;;2.20;1.20;;;17.90;57.60;;;;;;5016227;28;20582;-60
2020/12/20 09:20:42;;;;;;;2.50;1.40;;;17.90;57.60;;;;;;5028558;28;20729;-58
2020/12/20 09:23:22;;;;;;;2.73;1.37;;;17.90;57.40;;;;;;5022831;28;20214;-58
2020/12/20 09:25:50;;;;;;;2.93;1.60;;;17.90;57.40;;;;;;5028083;28;20376;-61
2020/12/20 09:28:21;;;;;;;4.47;1.50;;;17.90;57.30;;;;;;5019688;28;20617;-61
2020/12/20 09:30:49;;;;;;;5.27;1.90;;;17.90;57.50;;;;;;5027823;28;21710;-61
2020/12/20 09:33:23;;;;;;;4.83;1.70;;;17.90;57.40;;;;;;5017717;28;20234;-61
2020/12/20 09:35:52;;;;;;;4.10;1.67;;;17.90;57.40;;;;;;5028391;28;20231;-57
2020/12/20 09:38:19;;;;;;;4.23;1.50;;;17.90;57.70;;;;;;5022459;28;20245;-58
2020/12/20 09:40:45;;;;;;;4.67;1.70;;;17.90;57.60;;;;;;5024778;28;20237;-57
2020/12/20 09:43:19;;;;;;;2.07;1.30;;;17.90;57.40;;;;;;5025295;28;21666;-57
2020/12/20 09:45:45;;;;;;;3.13;1.60;;;17.90;57.30;;;;;;5019339;28;23998;-60
2020/12/20 09:48:12;;;;;;;2.73;1.50;;;17.90;57.40;;;;;;5027273;28;20215;-60
2020/12/20 09:50:38;;;;;;;2.90;1.50;;;17.90;57.50;;;;;;5020591;28;20222;-59
2020/12/20 09:53:05;;;;;;;3.83;1.57;;;17.90;57.30;;;;;;5026322;28;20245;-60
2020/12/20 09:55:31;;;;;;;4.03;1.80;;;17.90;57.40;;;;;;5016799;28;20222;-62
2020/12/20 09:57:58;;;;;;;4.03;1.70;;;17.90;57.30;;;;;;5025998;28;20227;-60
2020/12/20 10:00:24;;;;;;;3.20;1.40;;;17.90;57.10;;;;;;5020497;28;20219;-61
2020/12/20 10:02:51;;;;;;;2.50;1.37;;;17.90;57.30;;;;;;5027100;28;20226;-61
2020/12/20 10:05:17;;;;;;;3.00;1.50;;;17.90;57.20;;;;;;5002071;28;20219;-60
2020/12/20 10:07:43;;;;;;;5.17;1.67;;;17.90;57.10;;;;;;5026021;28;20219;-60
2020/12/20 10:10:10;;;;;;;4.20;1.73;;;17.90;57.10;;;;;;5019150;28;20226;-60
2020/12/20 10:12:36;;;;;;;3.97;1.53;;;17.90;57.10;;;;;;5024378;28;20226;-58
2020/12/20 10:15:03;;;;;;;6.17;1.50;;;17.90;57.00;;;;;;5018163;28;23540;-61
2020/12/20 10:17:29;;;;;;;4.07;1.80;;;17.90;57.00;;;;;;5024755;28;20249;-59
2020/12/20 10:19:55;;;;;;;3.87;1.90;;;17.90;57.00;;;;;;5020139;28;20215;-61
2020/12/20 10:22:22;;;;;;;3.17;1.60;;;17.90;57.00;;;;;;5025180;28;20583;-59
2020/12/20 10:24:48;;;;;;;4.80;1.63;;;17.90;56.90;;;;;;5025648;28;20219;-59
2020/12/20 10:27:14;;;;;;;10.37;2.93;;;17.90;57.10;;;;;;5014187;28;20227;-61
2020/12/20 10:29:40;;;;;;;17.13;4.07;;;17.90;58.00;;;;;;5011903;28;20235;-62
2020/12/20 10:32:07;;;;;;;11.90;3.60;;;17.90;59.20;;;;;;5016110;28;20227;-60
2020/12/20 10:34:33;;;;;;;15.40;3.47;;;17.90;58.50;;;;;;5024086;28;20230;-60
2020/12/20 10:36:59;;;;;;;11.50;3.30;;;17.90;58.50;;;;;;5021503;28;20226;-59
2020/12/20 10:39:26;;;;;;;9.50;3.03;;;17.90;58.20;;;;;;5026089;28;20227;-58
2020/12/20 10:41:52;;;;;;;8.83;2.77;;;17.90;57.90;;;;;;5018764;28;20234;-58
2020/12/20 10:44:22;;;;;;;11.20;3.40;;;17.90;57.80;;;;;;5026086;28;20218;-57
2020/12/20 10:46:53;;;;;;;8.67;2.77;;;17.90;57.70;;;;;;5019457;28;20234;-57
2020/12/20 10:49:20;;;;;;;8.30;2.80;;;17.90;57.60;;;;;;5027180;28;20588;-56
2020/12/20 10:51:53;;;;;;;8.90;2.83;;;17.90;57.50;;;;;;5017935;28;20235;-56
2020/12/20 10:54:28;;;;;;;7.03;2.20;;;17.90;57.30;;;;;;5027106;28;20242;-56
2020/12/20 10:56:58;;;;;;;9.10;2.57;;;17.90;57.30;;;;;;5018824;28;20218;-58
2020/12/20 10:59:30;;;;;;;6.83;2.90;;;17.90;57.30;;;;;;5024571;28;20226;-58
2020/12/20 11:01:56;;;;;;;5.50;2.47;;;17.90;57.20;;;;;;5016749;28;20221;-59
2020/12/20 11:04:24;;;;;;;7.40;2.93;;;17.90;57.20;;;;;;5026243;28;20234;-57
2020/12/20 11:07:01;;;;;;;7.60;3.03;;;17.90;57.20;;;;;;5025802;28;21731;-58
2020/12/20 11:09:28;;;;;;;5.37;2.40;;;17.90;57.30;;;;;;5024783;28;20261;-59
2020/12/20 11:11:54;;;;;;;5.67;2.37;;;17.90;57.20;;;;;;5026865;28;20222;-58
2020/12/20 11:14:22;;;;;;;7.20;2.50;;;17.90;57.30;;;;;;5018993;28;20222;-60
2020/12/20 11:16:52;;;;;;;6.07;2.57;;;17.90;57.30;;;;;;5024873;28;20229;-62
2020/12/20 11:19:20;;;;;;;5.00;2.30;;;17.90;57.30;;;;;;5020180;28;20222;-59
2020/12/20 11:21:49;;;;;;;4.23;2.13;;;17.90;57.30;;;;;;5026997;28;20250;-59
2020/12/20 11:24:16;;;;;;;5.67;2.50;;;17.90;57.80;;;;;;5019203;28;20215;-60
2020/12/20 11:26:44;;;;;;;6.23;2.27;;;17.90;57.50;;;;;;5025879;28;20227;-59
2020/12/20 11:29:11;;;;;;;3.73;2.00;;;17.90;57.50;;;;;;4993937;28;20234;-60
2020/12/20 11:31:39;;;;;;;5.70;2.27;;;17.90;57.50;;;;;;4977272;28;20230;-59
2020/12/20 11:34:07;;;;;;;5.67;2.27;;;17.90;57.60;;;;;;5007807;28;20234;-60
2020/12/20 11:36:34;;;;;;;5.93;2.50;;;17.90;57.50;;;;;;4984628;28;20708;-61
2020/12/20 11:39:01;;;;;;;4.03;1.77;;;17.90;57.40;;;;;;5000816;28;20227;-61
2020/12/20 11:41:28;;;;;;;6.80;2.27;;;17.90;57.50;;;;;;5017369;28;20600;-59
2020/12/20 11:43:55;;;;;;;6.07;2.00;;;17.90;57.40;;;;;;4989228;28;20788;-59
2020/12/20 11:46:22;;;;;;;4.83;1.87;;;18.00;57.40;;;;;;5000171;28;20635;-59
2020/12/20 11:48:49;;;;;;;5.50;2.20;;;18.00;57.30;;;;;;4996595;28;20265;-61
2020/12/20 11:51:17;;;;;;;4.53;2.00;;;18.00;57.30;;;;;;5023510;28;20269;-58
2020/12/20 11:53:43;;;;;;;5.40;1.80;;;17.90;57.20;;;;;;5020344;28;20244;-57
2020/12/20 11:56:15;;;;;;;3.90;2.10;;;18.00;57.20;;;;;;5019352;28;20257;-59
2020/12/20 11:58:43;;;;;;;5.03;2.00;;;17.90;57.20;;;;;;5005844;28;20244;-59
2020/12/20 12:01:10;;;;;;;3.60;2.10;;;17.90;57.20;;;;;;5016351;28;20230;-59
2020/12/20 12:03:37;;;;;;;5.13;1.90;;;18.00;57.10;;;;;;5022661;28;20271;-59
2020/12/20 12:06:06;;;;;;;5.60;2.10;;;18.00;57.20;;;;;;5016196;28;20226;-58
2020/12/20 12:08:33;;;;;;;5.10;1.73;;;18.00;57.10;;;;;;5019622;28;20235;-58
2020/12/20 12:10:59;;;;;;;4.37;1.80;;;17.90;57.00;;;;;;5007143;28;20241;-58
2020/12/20 12:13:26;;;;;;;3.60;1.50;;;18.00;57.10;;;;;;5005059;28;20326;-60
2020/12/20 12:15:52;;;;;;;3.77;2.10;;;18.00;57.10;;;;;;5019224;28;20211;-58
2020/12/20 12:18:18;;;;;;;5.73;1.73;;;18.00;57.10;;;;;;5022142;28;20265;-58
2020/12/20 12:20:44;;;;;;;4.83;2.17;;;18.00;57.00;;;;;;5019711;28;20230;-61
2020/12/20 12:23:11;;;;;;;3.30;1.73;;;18.00;57.00;;;;;;5023449;28;20226;-59
2020/12/20 12:25:38;;;;;;;4.77;1.60;;;18.00;57.00;;;;;;5016272;28;20234;-61
2020/12/20 12:28:04;;;;;;;3.97;1.90;;;18.00;57.00;;;;;;5025840;28;20226;-61
2020/12/20 12:30:30;;;;;;;3.70;2.00;;;18.00;57.00;;;;;;5016802;28;20643;-61
2020/12/20 12:32:56;;;;;;;5.60;1.60;;;17.90;56.90;;;;;;5022368;28;20245;-59
2020/12/20 12:35:23;;;;;;;3.47;2.13;;;18.00;57.00;;;;;;5025056;28;20229;-57
2020/12/20 12:37:50;;;;;;;3.83;1.77;;;18.00;57.00;;;;;;5020141;28;20887;-60
2020/12/20 12:40:21;;;;;;;4.07;1.80;;;18.00;56.90;;;;;;5025622;28;20691;-60
2020/12/20 12:42:47;;;;;;;4.97;1.90;;;18.00;57.00;;;;;;5014596;28;20641;-59
2020/12/20 12:45:15;;;;;;;6.43;2.00;;;18.00;57.00;;;;;;5022096;28;21529;-59
2020/12/20 12:47:42;;;;;;;4.90;1.80;;;18.00;56.90;;;;;;5018392;28;20726;-61
2020/12/20 12:50:09;;;;;;;2.93;1.80;;;18.00;57.00;;;;;;5024022;28;20612;-60
2020/12/20 12:52:35;;;;;;;5.27;1.90;;;18.00;57.00;;;;;;5013248;28;20233;-59